sensor_id;sensor_type;location;lat;lon;timestamp;pressure;altitude;pressure_sealevel;temperature;humidity
38267;BME280;24063;51.794;19.578;2022-09-29T00:00:01;96953.91;;;6.37;100.00
38267;BME280;24063;51.794;19.578;2022-09-29T00:01:16;96959.95;;;6.39;100.00
38267;BME280;24063;51.794;19.578;2022-09-29T00:02:19;96965.34;;;6.36;100.00
38267;BME280;24063;51.794;19.578;2022-09-29T00:03:22;96962.75;;;6.34;100.00
38267;BME280;24063;51.794;19.578;2022-09-29T00:04:24;96962.07;;;6.33;100.00
38267;BME280;24063;51.794;19.578;2022-09-29T00:05:25;96967.48;;;6.32;100.00
38267;BME280;24063;51.794;19.578;2022-09-29T00:06:27;96968.31;;;6.30;100.00
38267;BME280;24063;51.794;19.578;2022-09-29T00:07:29;96966.95;;;6.29;100.00
38267;BME280;24063;51.794;19.578;2022-09-29T00:08:32;96969.65;;;6.27;100.00
38267;BME280;24063;51.794;19.578;2022-09-29T00:09:34;96969.55;;;6.26;100.00
38267;BME280;24063;51.794;19.578;2022-09-29T00:10:39;96969.36;;;6.24;100.00
38267;BME280;24063;51.794;19.578;2022-09-29T00:11:41;96972.39;;;6.22;100.00
38267;BME280;24063;51.794;19.578;2022-09-29T00:12:44;96972.99;;;6.21;100.00
38267;BME280;24063;51.794;19.578;2022-09-29T00:13:46;96974.79;;;6.19;100.00
38267;BME280;24063;51.794;19.578;2022-09-29T00:14:48;96976.57;;;6.18;100.00
38267;BME280;24063;51.794;19.578;2022-09-29T00:15:55;96976.21;;;6.16;100.00
38267;BME280;24063;51.794;19.578;2022-09-29T00:16:57;96976.08;;;6.13;100.00
38267;BME280;24063;51.794;19.578;2022-09-29T00:17:59;96977.06;;;6.12;100.00
38267;BME280;24063;51.794;19.578;2022-09-29T00:19:15;96976.98;;;6.11;100.00
38267;BME280;24063;51.794;19.578;2022-09-29T00:20:17;96976.06;;;6.10;100.00
38267;BME280;24063;51.794;19.578;2022-09-29T00:21:19;96975.97;;;6.10;100.00
38267;BME280;24063;51.794;19.578;2022-09-29T00:22:22;96975.86;;;6.09;100.00
38267;BME280;24063;51.794;19.578;2022-09-29T00:23:24;96978.41;;;6.08;100.00
38267;BME280;24063;51.794;19.578;2022-09-29T00:24:26;96978.69;;;6.06;100.00
38267;BME280;24063;51.794;19.578;2022-09-29T00:25:29;96980.29;;;6.06;100.00
38267;BME280;24063;51.794;19.578;2022-09-29T00:26:31;96977.67;;;6.05;100.00
38267;BME280;24063;51.794;19.578;2022-09-29T00:27:32;96976.88;;;6.04;100.00
38267;BME280;24063;51.794;19.578;2022-09-29T00:28:36;96977.45;;;6.02;100.00
38267;BME280;24063;51.794;19.578;2022-09-29T00:29:38;96975.94;;;6.02;100.00
38267;BME280;24063;51.794;19.578;2022-09-29T00:30:39;96979.02;;;6.01;100.00
38267;BME280;24063;51.794;19.578;2022-09-29T00:31:41;96977.11;;;5.99;100.00
38267;BME280;24063;51.794;19.578;2022-09-29T00:32:43;96979.52;;;5.99;100.00
38267;BME280;24063;51.794;19.578;2022-09-29T00:33:44;96980.70;;;5.97;100.00
38267;BME280;24063;51.794;19.578;2022-09-29T00:34:46;96982.81;;;5.96;100.00
38267;BME280;24063;51.794;19.578;2022-09-29T00:36:14;96982.86;;;5.95;100.00
38267;BME280;24063;51.794;19.578;2022-09-29T00:37:16;96980.95;;;5.93;100.00
38267;BME280;24063;51.794;19.578;2022-09-29T00:38:18;96983.19;;;5.93;100.00
38267;BME280;24063;51.794;19.578;2022-09-29T00:39:20;96984.33;;;5.92;100.00
38267;BME280;24063;51.794;19.578;2022-09-29T00:40:21;96984.29;;;5.91;100.00
38267;BME280;24063;51.794;19.578;2022-09-29T00:41:35;96985.85;;;5.91;100.00
38267;BME280;24063;51.794;19.578;2022-09-29T00:42:37;96984.75;;;5.89;100.00
38267;BME280;24063;51.794;19.578;2022-09-29T00:44:03;96985.07;;;5.88;100.00
38267;BME280;24063;51.794;19.578;2022-09-29T00:45:19;96984.55;;;5.87;100.00
38267;BME280;24063;51.794;19.578;2022-09-29T00:46:35;96987.14;;;5.85;100.00
38267;BME280;24063;51.794;19.578;2022-09-29T00:47:40;96994.93;;;5.84;100.00
38267;BME280;24063;51.794;19.578;2022-09-29T00:48:46;96995.96;;;5.82;100.00
38267;BME280;24063;51.794;19.578;2022-09-29T00:49:58;96999.30;;;5.81;100.00
38267;BME280;24063;51.794;19.578;2022-09-29T00:51:02;97000.71;;;5.80;100.00
38267;BME280;24063;51.794;19.578;2022-09-29T00:52:14;96999.00;;;5.78;100.00
38267;BME280;24063;51.794;19.578;2022-09-29T00:53:20;97004.16;;;5.77;100.00
38267;BME280;24063;51.794;19.578;2022-09-29T00:54:30;97007.77;;;5.76;100.00
38267;BME280;24063;51.794;19.578;2022-09-29T00:55:42;97009.16;;;5.76;100.00
38267;BME280;24063;51.794;19.578;2022-09-29T00:56:48;97012.29;;;5.75;100.00
38267;BME280;24063;51.794;19.578;2022-09-29T00:58:04;97014.96;;;5.75;100.00
38267;BME280;24063;51.794;19.578;2022-09-29T00:59:12;97015.60;;;5.76;100.00
38267;BME280;24063;51.794;19.578;2022-09-29T01:00:16;97017.70;;;5.75;100.00
38267;BME280;24063;51.794;19.578;2022-09-29T01:01:18;97019.03;;;5.76;100.00
38267;BME280;24063;51.794;19.578;2022-09-29T01:02:21;97016.90;;;5.75;100.00
38267;BME280;24063;51.794;19.578;2022-09-29T01:03:29;97020.61;;;5.74;100.00
38267;BME280;24063;51.794;19.578;2022-09-29T01:04:33;97023.30;;;5.73;100.00
38267;BME280;24063;51.794;19.578;2022-09-29T01:05:41;97019.33;;;5.72;100.00
38267;BME280;24063;51.794;19.578;2022-09-29T01:06:55;97016.02;;;5.71;100.00
38267;BME280;24063;51.794;19.578;2022-09-29T01:08:07;97018.55;;;5.69;100.00
38267;BME280;24063;51.794;19.578;2022-09-29T01:09:19;97021.09;;;5.68;100.00
38267;BME280;24063;51.794;19.578;2022-09-29T01:10:22;97021.84;;;5.67;100.00
38267;BME280;24063;51.794;19.578;2022-09-29T01:11:24;97020.73;;;5.66;100.00
38267;BME280;24063;51.794;19.578;2022-09-29T01:12:26;97020.27;;;5.65;100.00
38267;BME280;24063;51.794;19.578;2022-09-29T01:13:28;97019.45;;;5.64;100.00
38267;BME280;24063;51.794;19.578;2022-09-29T01:14:32;97016.14;;;5.64;100.00
38267;BME280;24063;51.794;19.578;2022-09-29T01:15:36;97016.93;;;5.64;100.00
38267;BME280;24063;51.794;19.578;2022-09-29T01:16:38;97015.93;;;5.64;100.00
38267;BME280;24063;51.794;19.578;2022-09-29T01:17:40;97014.27;;;5.64;100.00
38267;BME280;24063;51.794;19.578;2022-09-29T01:18:44;97013.20;;;5.63;100.00
38267;BME280;24063;51.794;19.578;2022-09-29T01:20:40;97015.92;;;5.63;100.00
38267;BME280;24063;51.794;19.578;2022-09-29T01:23:27;97012.23;;;5.64;100.00
38267;BME280;24063;51.794;19.578;2022-09-29T01:24:45;97018.50;;;5.63;100.00
38267;BME280;24063;51.794;19.578;2022-09-29T01:26:15;97020.27;;;5.64;100.00
38267;BME280;24063;51.794;19.578;2022-09-29T01:29:11;97023.67;;;5.66;100.00
38267;BME280;24063;51.794;19.578;2022-09-29T01:30:19;97023.66;;;5.67;100.00
38267;BME280;24063;51.794;19.578;2022-09-29T01:33:09;97027.60;;;5.71;100.00
38267;BME280;24063;51.794;19.578;2022-09-29T01:34:41;97032.23;;;5.75;100.00
38267;BME280;24063;51.794;19.578;2022-09-29T01:36:02;97035.70;;;5.76;100.00
38267;BME280;24063;51.794;19.578;2022-09-29T01:40:13;97029.97;;;5.76;100.00
38267;BME280;24063;51.794;19.578;2022-09-29T01:42:31;97036.71;;;5.78;100.00
38267;BME280;24063;51.794;19.578;2022-09-29T01:43:56;97040.24;;;5.78;100.00
38267;BME280;24063;51.794;19.578;2022-09-29T01:45:36;97042.45;;;5.78;100.00
38267;BME280;24063;51.794;19.578;2022-09-29T01:46:43;97041.42;;;5.78;100.00
38267;BME280;24063;51.794;19.578;2022-09-29T01:47:56;97037.02;;;5.78;100.00
38267;BME280;24063;51.794;19.578;2022-09-29T01:49:02;97035.91;;;5.77;100.00
38267;BME280;24063;51.794;19.578;2022-09-29T01:50:21;97040.35;;;5.78;100.00
38267;BME280;24063;51.794;19.578;2022-09-29T01:51:55;97035.36;;;5.78;100.00
38267;BME280;24063;51.794;19.578;2022-09-29T01:53:08;97034.38;;;5.80;100.00
38267;BME280;24063;51.794;19.578;2022-09-29T01:54:20;97035.92;;;5.81;100.00
38267;BME280;24063;51.794;19.578;2022-09-29T01:55:29;97032.50;;;5.80;100.00
38267;BME280;24063;51.794;19.578;2022-09-29T01:56:39;97031.17;;;5.80;100.00
38267;BME280;24063;51.794;19.578;2022-09-29T01:57:55;97037.39;;;5.79;100.00
38267;BME280;24063;51.794;19.578;2022-09-29T01:59:13;97036.91;;;5.80;100.00
38267;BME280;24063;51.794;19.578;2022-09-29T02:00:18;97039.68;;;5.80;100.00
38267;BME280;24063;51.794;19.578;2022-09-29T02:01:24;97040.92;;;5.80;100.00
38267;BME280;24063;51.794;19.578;2022-09-29T02:02:47;97039.58;;;5.80;100.00
38267;BME280;24063;51.794;19.578;2022-09-29T02:03:58;97037.91;;;5.81;100.00
38267;BME280;24063;51.794;19.578;2022-09-29T02:05:08;97041.83;;;5.81;100.00
38267;BME280;24063;51.794;19.578;2022-09-29T02:06:19;97036.42;;;5.79;100.00
38267;BME280;24063;51.794;19.578;2022-09-29T02:07:31;97040.34;;;5.79;100.00
38267;BME280;24063;51.794;19.578;2022-09-29T02:09:07;97043.88;;;5.79;100.00
38267;BME280;24063;51.794;19.578;2022-09-29T02:10:25;97046.51;;;5.79;100.00
38267;BME280;24063;51.794;19.578;2022-09-29T02:11:32;97049.41;;;5.77;100.00
38267;BME280;24063;51.794;19.578;2022-09-29T02:12:40;97050.98;;;5.76;100.00
38267;BME280;24063;51.794;19.578;2022-09-29T02:13:50;97052.44;;;5.76;100.00
38267;BME280;24063;51.794;19.578;2022-09-29T02:14:55;97058.70;;;5.75;100.00
38267;BME280;24063;51.794;19.578;2022-09-29T02:16:01;97059.14;;;5.75;100.00
38267;BME280;24063;51.794;19.578;2022-09-29T02:17:10;97058.84;;;5.74;100.00
38267;BME280;24063;51.794;19.578;2022-09-29T02:18:23;97062.60;;;5.73;100.00
38267;BME280;24063;51.794;19.578;2022-09-29T02:19:30;97067.80;;;5.73;100.00
38267;BME280;24063;51.794;19.578;2022-09-29T02:20:34;97068.22;;;5.73;100.00
38267;BME280;24063;51.794;19.578;2022-09-29T02:21:36;97070.09;;;5.74;100.00
38267;BME280;24063;51.794;19.578;2022-09-29T02:22:38;97071.15;;;5.75;100.00
38267;BME280;24063;51.794;19.578;2022-09-29T02:23:39;97069.65;;;5.75;100.00
38267;BME280;24063;51.794;19.578;2022-09-29T02:24:42;97067.34;;;5.75;100.00
38267;BME280;24063;51.794;19.578;2022-09-29T02:25:48;97067.23;;;5.76;100.00
38267;BME280;24063;51.794;19.578;2022-09-29T02:26:51;97064.19;;;5.75;100.00
38267;BME280;24063;51.794;19.578;2022-09-29T02:27:53;97064.83;;;5.74;100.00
38267;BME280;24063;51.794;19.578;2022-09-29T02:28:55;97065.86;;;5.74;100.00
38267;BME280;24063;51.794;19.578;2022-09-29T02:29:57;97063.50;;;5.73;100.00
38267;BME280;24063;51.794;19.578;2022-09-29T02:31:00;97063.03;;;5.72;100.00
38267;BME280;24063;51.794;19.578;2022-09-29T02:32:04;97063.13;;;5.73;100.00
38267;BME280;24063;51.794;19.578;2022-09-29T02:33:21;97063.50;;;5.74;100.00
38267;BME280;24063;51.794;19.578;2022-09-29T02:34:24;97067.12;;;5.76;100.00
38267;BME280;24063;51.794;19.578;2022-09-29T02:35:41;97068.38;;;5.75;100.00
38267;BME280;24063;51.794;19.578;2022-09-29T02:37:26;97071.63;;;5.75;100.00
38267;BME280;24063;51.794;19.578;2022-09-29T02:38:52;97072.71;;;5.75;100.00
38267;BME280;24063;51.794;19.578;2022-09-29T02:42:29;97075.17;;;5.75;100.00
38267;BME280;24063;51.794;19.578;2022-09-29T02:44:47;97079.51;;;5.76;100.00
38267;BME280;24063;51.794;19.578;2022-09-29T02:50:35;97086.45;;;5.80;100.00
38267;BME280;24063;51.794;19.578;2022-09-29T02:51:47;97087.19;;;5.80;100.00
38267;BME280;24063;51.794;19.578;2022-09-29T02:53:04;97087.46;;;5.81;100.00
38267;BME280;24063;51.794;19.578;2022-09-29T02:58:39;97092.30;;;5.85;100.00
38267;BME280;24063;51.794;19.578;2022-09-29T03:01:07;97090.67;;;5.87;100.00
38267;BME280;24063;51.794;19.578;2022-09-29T03:02:09;97091.59;;;5.87;100.00
38267;BME280;24063;51.794;19.578;2022-09-29T03:03:11;97092.63;;;5.85;100.00
38267;BME280;24063;51.794;19.578;2022-09-29T03:04:13;97091.86;;;5.86;100.00
38267;BME280;24063;51.794;19.578;2022-09-29T03:05:17;97092.79;;;5.85;100.00
38267;BME280;24063;51.794;19.578;2022-09-29T03:06:20;97088.54;;;5.86;100.00
38267;BME280;24063;51.794;19.578;2022-09-29T03:07:23;97086.45;;;5.86;100.00
38267;BME280;24063;51.794;19.578;2022-09-29T03:08:25;97084.46;;;5.86;100.00
38267;BME280;24063;51.794;19.578;2022-09-29T03:09:26;97086.92;;;5.86;100.00
38267;BME280;24063;51.794;19.578;2022-09-29T03:10:28;97088.59;;;5.87;100.00
38267;BME280;24063;51.794;19.578;2022-09-29T03:11:30;97094.27;;;5.87;100.00
38267;BME280;24063;51.794;19.578;2022-09-29T03:12:33;97095.77;;;5.87;100.00
38267;BME280;24063;51.794;19.578;2022-09-29T03:13:35;97097.42;;;5.89;100.00
38267;BME280;24063;51.794;19.578;2022-09-29T03:14:37;97100.69;;;5.89;100.00
38267;BME280;24063;51.794;19.578;2022-09-29T03:15:39;97097.53;;;5.88;100.00
38267;BME280;24063;51.794;19.578;2022-09-29T03:16:40;97098.50;;;5.88;100.00
38267;BME280;24063;51.794;19.578;2022-09-29T03:17:43;97096.35;;;5.88;100.00
38267;BME280;24063;51.794;19.578;2022-09-29T03:18:45;97099.08;;;5.89;100.00
38267;BME280;24063;51.794;19.578;2022-09-29T03:19:47;97096.94;;;5.89;100.00
38267;BME280;24063;51.794;19.578;2022-09-29T03:20:49;97100.36;;;5.90;100.00
38267;BME280;24063;51.794;19.578;2022-09-29T03:21:50;97105.55;;;5.91;100.00
38267;BME280;24063;51.794;19.578;2022-09-29T03:22:56;97108.14;;;5.91;100.00
38267;BME280;24063;51.794;19.578;2022-09-29T03:23:58;97109.80;;;5.90;100.00
38267;BME280;24063;51.794;19.578;2022-09-29T03:25:00;97113.13;;;5.90;100.00
38267;BME280;24063;51.794;19.578;2022-09-29T03:26:02;97114.86;;;5.88;100.00
38267;BME280;24063;51.794;19.578;2022-09-29T03:27:04;97113.35;;;5.88;100.00
38267;BME280;24063;51.794;19.578;2022-09-29T03:28:06;97111.00;;;5.88;100.00
38267;BME280;24063;51.794;19.578;2022-09-29T03:29:08;97112.44;;;5.88;100.00
38267;BME280;24063;51.794;19.578;2022-09-29T03:30:11;97113.36;;;5.88;100.00
38267;BME280;24063;51.794;19.578;2022-09-29T03:31:13;97110.62;;;5.86;100.00
38267;BME280;24063;51.794;19.578;2022-09-29T03:32:16;97108.42;;;5.87;100.00
38267;BME280;24063;51.794;19.578;2022-09-29T03:33:18;97103.23;;;5.86;100.00
38267;BME280;24063;51.794;19.578;2022-09-29T03:34:19;97104.86;;;5.85;100.00
38267;BME280;24063;51.794;19.578;2022-09-29T03:35:21;97102.06;;;5.84;100.00
38267;BME280;24063;51.794;19.578;2022-09-29T03:36:23;97106.30;;;5.85;100.00
38267;BME280;24063;51.794;19.578;2022-09-29T03:37:25;97107.91;;;5.86;100.00
38267;BME280;24063;51.794;19.578;2022-09-29T03:38:27;97106.61;;;5.86;100.00
38267;BME280;24063;51.794;19.578;2022-09-29T03:39:28;97107.67;;;5.86;100.00
38267;BME280;24063;51.794;19.578;2022-09-29T03:40:30;97109.78;;;5.85;100.00
38267;BME280;24063;51.794;19.578;2022-09-29T03:41:32;97112.30;;;5.85;100.00
38267;BME280;24063;51.794;19.578;2022-09-29T03:42:33;97113.01;;;5.85;100.00
38267;BME280;24063;51.794;19.578;2022-09-29T03:43:35;97116.08;;;5.83;100.00
38267;BME280;24063;51.794;19.578;2022-09-29T03:44:37;97117.16;;;5.82;100.00
38267;BME280;24063;51.794;19.578;2022-09-29T03:45:50;97118.55;;;5.82;100.00
38267;BME280;24063;51.794;19.578;2022-09-29T03:46:52;97120.36;;;5.83;100.00
38267;BME280;24063;51.794;19.578;2022-09-29T03:47:54;97123.64;;;5.83;100.00
38267;BME280;24063;51.794;19.578;2022-09-29T03:48:55;97125.55;;;5.84;100.00
38267;BME280;24063;51.794;19.578;2022-09-29T03:49:57;97127.00;;;5.84;100.00
38267;BME280;24063;51.794;19.578;2022-09-29T03:50:59;97128.52;;;5.84;100.00
38267;BME280;24063;51.794;19.578;2022-09-29T03:52:00;97128.57;;;5.83;100.00
38267;BME280;24063;51.794;19.578;2022-09-29T03:53:02;97125.69;;;5.83;100.00
38267;BME280;24063;51.794;19.578;2022-09-29T03:54:04;97125.67;;;5.84;100.00
38267;BME280;24063;51.794;19.578;2022-09-29T03:55:06;97126.41;;;5.85;100.00
38267;BME280;24063;51.794;19.578;2022-09-29T03:56:08;97128.17;;;5.85;100.00
38267;BME280;24063;51.794;19.578;2022-09-29T03:57:10;97129.20;;;5.84;100.00
38267;BME280;24063;51.794;19.578;2022-09-29T03:58:12;97128.48;;;5.81;100.00
38267;BME280;24063;51.794;19.578;2022-09-29T03:59:14;97129.19;;;5.79;100.00
38267;BME280;24063;51.794;19.578;2022-09-29T04:00:16;97130.71;;;5.77;100.00
38267;BME280;24063;51.794;19.578;2022-09-29T04:01:18;97127.30;;;5.74;100.00
38267;BME280;24063;51.794;19.578;2022-09-29T04:02:19;97126.40;;;5.73;100.00
38267;BME280;24063;51.794;19.578;2022-09-29T04:03:21;97127.42;;;5.72;100.00
38267;BME280;24063;51.794;19.578;2022-09-29T04:04:23;97126.84;;;5.70;100.00
38267;BME280;24063;51.794;19.578;2022-09-29T04:05:25;97125.07;;;5.69;100.00
38267;BME280;24063;51.794;19.578;2022-09-29T04:06:29;97131.10;;;5.68;100.00
38267;BME280;24063;51.794;19.578;2022-09-29T04:07:31;97127.24;;;5.67;100.00
38267;BME280;24063;51.794;19.578;2022-09-29T04:08:35;97128.71;;;5.64;100.00
38267;BME280;24063;51.794;19.578;2022-09-29T04:09:37;97126.66;;;5.60;100.00
38267;BME280;24063;51.794;19.578;2022-09-29T04:10:40;97126.73;;;5.57;100.00
38267;BME280;24063;51.794;19.578;2022-09-29T04:11:41;97126.94;;;5.56;100.00
38267;BME280;24063;51.794;19.578;2022-09-29T04:12:43;97128.02;;;5.55;100.00
38267;BME280;24063;51.794;19.578;2022-09-29T04:13:45;97130.06;;;5.54;100.00
38267;BME280;24063;51.794;19.578;2022-09-29T04:14:46;97129.00;;;5.53;100.00
38267;BME280;24063;51.794;19.578;2022-09-29T04:15:48;97128.35;;;5.53;100.00
38267;BME280;24063;51.794;19.578;2022-09-29T04:16:50;97131.40;;;5.54;100.00
38267;BME280;24063;51.794;19.578;2022-09-29T04:17:52;97132.20;;;5.55;100.00
38267;BME280;24063;51.794;19.578;2022-09-29T04:18:53;97134.71;;;5.55;100.00
38267;BME280;24063;51.794;19.578;2022-09-29T04:19:55;97131.36;;;5.54;100.00
38267;BME280;24063;51.794;19.578;2022-09-29T04:20:58;97133.94;;;5.52;100.00
38267;BME280;24063;51.794;19.578;2022-09-29T04:22:01;97134.77;;;5.50;100.00
38267;BME280;24063;51.794;19.578;2022-09-29T04:23:02;97131.42;;;5.50;100.00
38267;BME280;24063;51.794;19.578;2022-09-29T04:24:05;97127.73;;;5.48;100.00
38267;BME280;24063;51.794;19.578;2022-09-29T04:25:07;97130.42;;;5.49;100.00
38267;BME280;24063;51.794;19.578;2022-09-29T04:26:08;97129.87;;;5.52;100.00
38267;BME280;24063;51.794;19.578;2022-09-29T04:27:10;97128.52;;;5.55;100.00
38267;BME280;24063;51.794;19.578;2022-09-29T04:28:12;97126.52;;;5.56;100.00
38267;BME280;24063;51.794;19.578;2022-09-29T04:29:14;97128.39;;;5.57;100.00
38267;BME280;24063;51.794;19.578;2022-09-29T04:30:16;97129.30;;;5.56;100.00
38267;BME280;24063;51.794;19.578;2022-09-29T04:31:19;97134.46;;;5.53;100.00
38267;BME280;24063;51.794;19.578;2022-09-29T04:32:20;97138.72;;;5.50;100.00
38267;BME280;24063;51.794;19.578;2022-09-29T04:33:22;97138.63;;;5.47;100.00
38267;BME280;24063;51.794;19.578;2022-09-29T04:34:24;97139.33;;;5.46;100.00
38267;BME280;24063;51.794;19.578;2022-09-29T04:35:26;97138.76;;;5.46;100.00
38267;BME280;24063;51.794;19.578;2022-09-29T04:36:27;97139.34;;;5.45;100.00
38267;BME280;24063;51.794;19.578;2022-09-29T04:37:29;97138.20;;;5.48;100.00
38267;BME280;24063;51.794;19.578;2022-09-29T04:38:32;97138.56;;;5.50;100.00
38267;BME280;24063;51.794;19.578;2022-09-29T04:39:33;97141.66;;;5.53;100.00
38267;BME280;24063;51.794;19.578;2022-09-29T04:40:35;97136.17;;;5.53;100.00
38267;BME280;24063;51.794;19.578;2022-09-29T04:41:37;97140.89;;;5.54;100.00
38267;BME280;24063;51.794;19.578;2022-09-29T04:42:40;97140.30;;;5.52;100.00
38267;BME280;24063;51.794;19.578;2022-09-29T04:43:42;97145.09;;;5.51;100.00
38267;BME280;24063;51.794;19.578;2022-09-29T04:44:43;97147.36;;;5.49;100.00
38267;BME280;24063;51.794;19.578;2022-09-29T04:45:45;97144.31;;;5.45;100.00
38267;BME280;24063;51.794;19.578;2022-09-29T04:46:50;97146.05;;;5.43;100.00
38267;BME280;24063;51.794;19.578;2022-09-29T04:47:52;97147.57;;;5.42;100.00
38267;BME280;24063;51.794;19.578;2022-09-29T04:48:54;97148.48;;;5.40;100.00
38267;BME280;24063;51.794;19.578;2022-09-29T04:49:55;97151.75;;;5.41;100.00
38267;BME280;24063;51.794;19.578;2022-09-29T04:50:57;97154.90;;;5.41;100.00
38267;BME280;24063;51.794;19.578;2022-09-29T04:51:59;97154.25;;;5.41;100.00
38267;BME280;24063;51.794;19.578;2022-09-29T04:53:01;97155.81;;;5.41;100.00
38267;BME280;24063;51.794;19.578;2022-09-29T04:54:03;97163.25;;;5.43;100.00
38267;BME280;24063;51.794;19.578;2022-09-29T04:55:05;97162.50;;;5.45;100.00
38267;BME280;24063;51.794;19.578;2022-09-29T04:56:07;97161.56;;;5.48;100.00
38267;BME280;24063;51.794;19.578;2022-09-29T04:57:11;97165.04;;;5.51;100.00
38267;BME280;24063;51.794;19.578;2022-09-29T04:58:13;97164.75;;;5.52;100.00
38267;BME280;24063;51.794;19.578;2022-09-29T04:59:15;97169.68;;;5.53;100.00
38267;BME280;24063;51.794;19.578;2022-09-29T05:00:20;97175.85;;;5.53;100.00
38267;BME280;24063;51.794;19.578;2022-09-29T05:01:22;97177.51;;;5.54;100.00
38267;BME280;24063;51.794;19.578;2022-09-29T05:02:24;97180.83;;;5.54;100.00
38267;BME280;24063;51.794;19.578;2022-09-29T05:03:25;97184.41;;;5.54;100.00
38267;BME280;24063;51.794;19.578;2022-09-29T05:04:27;97185.48;;;5.53;100.00
38267;BME280;24063;51.794;19.578;2022-09-29T05:05:29;97180.23;;;5.53;100.00
38267;BME280;24063;51.794;19.578;2022-09-29T05:06:30;97178.90;;;5.53;100.00
38267;BME280;24063;51.794;19.578;2022-09-29T05:07:36;97176.55;;;5.52;100.00
38267;BME280;24063;51.794;19.578;2022-09-29T05:08:38;97178.80;;;5.52;100.00
38267;BME280;24063;51.794;19.578;2022-09-29T05:09:40;97175.48;;;5.53;100.00
38267;BME280;24063;51.794;19.578;2022-09-29T05:10:41;97179.00;;;5.54;100.00
38267;BME280;24063;51.794;19.578;2022-09-29T05:11:43;97180.30;;;5.53;100.00
38267;BME280;24063;51.794;19.578;2022-09-29T05:12:48;97180.50;;;5.54;100.00
38267;BME280;24063;51.794;19.578;2022-09-29T05:13:50;97178.02;;;5.55;100.00
38267;BME280;24063;51.794;19.578;2022-09-29T05:14:52;97181.47;;;5.56;100.00
38267;BME280;24063;51.794;19.578;2022-09-29T05:15:55;97181.63;;;5.56;100.00
38267;BME280;24063;51.794;19.578;2022-09-29T05:16:58;97180.55;;;5.57;100.00
38267;BME280;24063;51.794;19.578;2022-09-29T05:18:01;97181.07;;;5.58;100.00
38267;BME280;24063;51.794;19.578;2022-09-29T05:19:03;97183.38;;;5.57;100.00
38267;BME280;24063;51.794;19.578;2022-09-29T05:20:05;97181.45;;;5.57;100.00
38267;BME280;24063;51.794;19.578;2022-09-29T05:21:08;97184.35;;;5.57;100.00
38267;BME280;24063;51.794;19.578;2022-09-29T05:22:28;97187.35;;;5.59;100.00
38267;BME280;24063;51.794;19.578;2022-09-29T05:23:30;97184.76;;;5.60;100.00
38267;BME280;24063;51.794;19.578;2022-09-29T05:24:32;97187.81;;;5.60;100.00
38267;BME280;24063;51.794;19.578;2022-09-29T05:25:33;97184.48;;;5.61;100.00
38267;BME280;24063;51.794;19.578;2022-09-29T05:26:36;97183.29;;;5.62;100.00
38267;BME280;24063;51.794;19.578;2022-09-29T05:27:38;97183.40;;;5.62;100.00
38267;BME280;24063;51.794;19.578;2022-09-29T05:28:45;97192.09;;;5.62;100.00
38267;BME280;24063;51.794;19.578;2022-09-29T05:29:48;97192.19;;;5.62;100.00
38267;BME280;24063;51.794;19.578;2022-09-29T05:30:50;97195.48;;;5.60;100.00
38267;BME280;24063;51.794;19.578;2022-09-29T05:31:52;97198.55;;;5.58;100.00
38267;BME280;24063;51.794;19.578;2022-09-29T05:32:54;97196.20;;;5.56;100.00
38267;BME280;24063;51.794;19.578;2022-09-29T05:33:59;97194.49;;;5.56;100.00
38267;BME280;24063;51.794;19.578;2022-09-29T05:35:01;97199.70;;;5.56;100.00
38267;BME280;24063;51.794;19.578;2022-09-29T05:36:08;97198.66;;;5.57;100.00
38267;BME280;24063;51.794;19.578;2022-09-29T05:37:11;97199.79;;;5.56;100.00
38267;BME280;24063;51.794;19.578;2022-09-29T05:38:13;97196.52;;;5.56;100.00
38267;BME280;24063;51.794;19.578;2022-09-29T05:39:15;97199.21;;;5.54;100.00
38267;BME280;24063;51.794;19.578;2022-09-29T05:40:17;97201.41;;;5.53;100.00
38267;BME280;24063;51.794;19.578;2022-09-29T05:41:20;97200.94;;;5.52;100.00
38267;BME280;24063;51.794;19.578;2022-09-29T05:42:25;97204.81;;;5.50;100.00
38267;BME280;24063;51.794;19.578;2022-09-29T05:43:28;97205.98;;;5.51;100.00
38267;BME280;24063;51.794;19.578;2022-09-29T05:44:29;97208.45;;;5.51;100.00
38267;BME280;24063;51.794;19.578;2022-09-29T05:45:31;97209.40;;;5.52;100.00
38267;BME280;24063;51.794;19.578;2022-09-29T05:46:34;97210.70;;;5.51;100.00
38267;BME280;24063;51.794;19.578;2022-09-29T05:47:40;97207.70;;;5.50;100.00
38267;BME280;24063;51.794;19.578;2022-09-29T05:48:44;97210.12;;;5.48;100.00
38267;BME280;24063;51.794;19.578;2022-09-29T05:49:46;97211.99;;;5.48;100.00
38267;BME280;24063;51.794;19.578;2022-09-29T05:50:48;97211.58;;;5.48;100.00
38267;BME280;24063;51.794;19.578;2022-09-29T05:51:50;97212.63;;;5.52;100.00
38267;BME280;24063;51.794;19.578;2022-09-29T05:52:52;97211.70;;;5.54;100.00
38267;BME280;24063;51.794;19.578;2022-09-29T05:53:54;97213.46;;;5.56;100.00
38267;BME280;24063;51.794;19.578;2022-09-29T05:54:56;97213.62;;;5.57;100.00
38267;BME280;24063;51.794;19.578;2022-09-29T05:55:58;97213.77;;;5.58;100.00
38267;BME280;24063;51.794;19.578;2022-09-29T05:57:00;97211.11;;;5.61;100.00
38267;BME280;24063;51.794;19.578;2022-09-29T05:58:02;97210.70;;;5.62;100.00
38267;BME280;24063;51.794;19.578;2022-09-29T05:59:04;97211.27;;;5.65;100.00
38267;BME280;24063;51.794;19.578;2022-09-29T06:00:06;97208.89;;;5.67;100.00
38267;BME280;24063;51.794;19.578;2022-09-29T06:01:18;97208.19;;;5.68;100.00
38267;BME280;24063;51.794;19.578;2022-09-29T06:02:20;97209.73;;;5.71;100.00
38267;BME280;24063;51.794;19.578;2022-09-29T06:03:22;97210.84;;;5.73;100.00
38267;BME280;24063;51.794;19.578;2022-09-29T06:04:24;97210.34;;;5.74;100.00